sensor_id;sensor_type;location;lat;lon;timestamp;pressure;altitude;pressure_sealevel;temperature;humidity
31299;BME280;17927;52.350;13.402;2022-11-02T00:00:48;101484.06;;;14.69;62.47
31299;BME280;17927;52.350;13.402;2022-11-02T00:03:13;101484.22;;;14.68;62.56
31299;BME280;17927;52.350;13.402;2022-11-02T00:05:38;101483.47;;;14.66;62.61
31299;BME280;17927;52.350;13.402;2022-11-02T00:08:04;101488.22;;;14.64;62.51
31299;BME280;17927;52.350;13.402;2022-11-02T00:10:29;101484.06;;;14.59;62.78
31299;BME280;17927;52.350;13.402;2022-11-02T00:12:54;101494.25;;;14.57;62.63
31299;BME280;17927;52.350;13.402;2022-11-02T00:15:20;101492.69;;;14.55;62.66
31299;BME280;17927;52.350;13.402;2022-11-02T00:17:49;101480.25;;;14.52;62.89
31299;BME280;17927;52.350;13.402;2022-11-02T00:20:17;101493.84;;;14.52;62.60
31299;BME280;17927;52.350;13.402;2022-11-02T00:22:45;101490.56;;;14.49;62.87
31299;BME280;17927;52.350;13.402;2022-11-02T00:25:14;101492.59;;;14.46;62.74
31299;BME280;17927;52.350;13.402;2022-11-02T00:27:41;101487.28;;;14.45;62.73
31299;BME280;17927;52.350;13.402;2022-11-02T00:30:07;101485.59;;;14.44;62.79
31299;BME280;17927;52.350;13.402;2022-11-02T00:32:33;101484.03;;;14.41;62.55
31299;BME280;17927;52.350;13.402;2022-11-02T00:34:58;101488.59;;;14.41;62.65
31299;BME280;17927;52.350;13.402;2022-11-02T00:37:24;101491.47;;;14.39;62.51
31299;BME280;17927;52.350;13.402;2022-11-02T00:39:49;101490.06;;;14.35;62.47
31299;BME280;17927;52.350;13.402;2022-11-02T00:42:14;101487.50;;;14.34;62.56
31299;BME280;17927;52.350;13.402;2022-11-02T00:44:40;101483.22;;;14.31;62.51
31299;BME280;17927;52.350;13.402;2022-11-02T00:47:05;101483.38;;;14.29;62.45
31299;BME280;17927;52.350;13.402;2022-11-02T00:49:30;101496.94;;;14.29;62.28
31299;BME280;17927;52.350;13.402;2022-11-02T00:51:56;101492.69;;;14.27;61.98
31299;BME280;17927;52.350;13.402;2022-11-02T00:54:21;101497.25;;;14.26;62.20
31299;BME280;17927;52.350;13.402;2022-11-02T00:56:46;101493.84;;;14.24;61.94
31299;BME280;17927;52.350;13.402;2022-11-02T00:59:11;101492.25;;;14.22;61.85
31299;BME280;17927;52.350;13.402;2022-11-02T01:01:37;101497.16;;;14.18;61.99
31299;BME280;17927;52.350;13.402;2022-11-02T01:04:02;101494.00;;;14.13;61.96
31299;BME280;17927;52.350;13.402;2022-11-02T01:06:28;101492.47;;;14.10;61.97
31299;BME280;17927;52.350;13.402;2022-11-02T01:08:53;101486.47;;;14.07;62.16
31299;BME280;17927;52.350;13.402;2022-11-02T01:11:20;101482.03;;;14.06;62.05
31299;BME280;17927;52.350;13.402;2022-11-02T01:13:49;101483.34;;;14.01;62.12
31299;BME280;17927;52.350;13.402;2022-11-02T01:16:14;101489.06;;;13.98;61.93
31299;BME280;17927;52.350;13.402;2022-11-02T01:18:40;101483.91;;;13.95;62.06
31299;BME280;17927;52.350;13.402;2022-11-02T01:21:06;101492.38;;;13.92;62.11
31299;BME280;17927;52.350;13.402;2022-11-02T01:23:32;101497.22;;;13.89;62.06
31299;BME280;17927;52.350;13.402;2022-11-02T01:26:02;101492.94;;;13.86;62.27
31299;BME280;17927;52.350;13.402;2022-11-02T01:28:28;101492.41;;;13.82;62.20
31299;BME280;17927;52.350;13.402;2022-11-02T01:30:53;101499.81;;;13.80;62.10
31299;BME280;17927;52.350;13.402;2022-11-02T01:33:18;101495.56;;;13.78;62.04
31299;BME280;17927;52.350;13.402;2022-11-02T01:35:43;101494.13;;;13.74;62.03
31299;BME280;17927;52.350;13.402;2022-11-02T01:38:09;101487.25;;;13.69;62.20
31299;BME280;17927;52.350;13.402;2022-11-02T01:40:36;101496.41;;;13.68;61.95
31299;BME280;17927;52.350;13.402;2022-11-02T01:43:24;101484.84;;;13.66;61.98
31299;BME280;17927;52.350;13.402;2022-11-02T01:46:12;101487.84;;;13.63;61.93
31299;BME280;17927;52.350;13.402;2022-11-02T01:48:44;101477.28;;;13.60;62.26
31299;BME280;17927;52.350;13.402;2022-11-02T01:51:17;101477.41;;;13.59;62.10
31299;BME280;17927;52.350;13.402;2022-11-02T01:53:45;101470.28;;;13.58;62.04
31299;BME280;17927;52.350;13.402;2022-11-02T01:56:15;101466.56;;;13.59;61.89
31299;BME280;17927;52.350;13.402;2022-11-02T01:58:44;101468.44;;;13.58;62.00
31299;BME280;17927;52.350;13.402;2022-11-02T02:01:11;101473.16;;;13.56;61.91
31299;BME280;17927;52.350;13.402;2022-11-02T02:03:37;101471.16;;;13.58;61.84
31299;BME280;17927;52.350;13.402;2022-11-02T02:06:08;101464.00;;;13.57;61.81
31299;BME280;17927;52.350;13.402;2022-11-02T02:08:38;101474.00;;;13.57;61.76
31299;BME280;17927;52.350;13.402;2022-11-02T02:11:34;101467.88;;;13.54;61.91
31299;BME280;17927;52.350;13.402;2022-11-02T02:14:02;101471.72;;;13.52;61.72
31299;BME280;17927;52.350;13.402;2022-11-02T02:19:37;101462.84;;;13.50;61.63
31299;BME280;17927;52.350;13.402;2022-11-02T02:28:14;101465.56;;;13.40;61.71
31299;BME280;17927;52.350;13.402;2022-11-02T02:31:03;101457.00;;;13.35;61.51
31299;BME280;17927;52.350;13.402;2022-11-02T02:33:35;101452.56;;;13.34;61.54
31299;BME280;17927;52.350;13.402;2022-11-02T02:36:10;101453.28;;;13.36;61.44
31299;BME280;17927;52.350;13.402;2022-11-02T02:38:43;101451.56;;;13.35;61.52
31299;BME280;17927;52.350;13.402;2022-11-02T02:41:14;101459.84;;;13.33;61.41
31299;BME280;17927;52.350;13.402;2022-11-02T02:43:43;101461.00;;;13.31;61.55
31299;BME280;17927;52.350;13.402;2022-11-02T02:46:20;101448.59;;;13.28;61.46
31299;BME280;17927;52.350;13.402;2022-11-02T02:48:47;101449.59;;;13.27;61.55
31299;BME280;17927;52.350;13.402;2022-11-02T02:51:18;101456.00;;;13.26;61.55
31299;BME280;17927;52.350;13.402;2022-11-02T02:53:46;101457.28;;;13.12;61.83
31299;BME280;17927;52.350;13.402;2022-11-02T02:56:15;101457.16;;;13.14;61.96
31299;BME280;17927;52.350;13.402;2022-11-02T02:59:04;101454.13;;;13.17;61.67
31299;BME280;17927;52.350;13.402;2022-11-02T03:01:31;101443.44;;;13.15;61.62
31299;BME280;17927;52.350;13.402;2022-11-02T03:03:56;101437.16;;;13.15;61.48
31299;BME280;17927;52.350;13.402;2022-11-02T03:06:33;101448.88;;;13.15;61.29
31299;BME280;17927;52.350;13.402;2022-11-02T03:09:09;101448.03;;;13.15;61.36
31299;BME280;17927;52.350;13.402;2022-11-02T03:11:50;101445.44;;;13.13;61.50
31299;BME280;17927;52.350;13.402;2022-11-02T03:14:31;101458.28;;;13.11;61.45
31299;BME280;17927;52.350;13.402;2022-11-02T03:17:15;101448.44;;;13.10;61.36
31299;BME280;17927;52.350;13.402;2022-11-02T03:22:43;101446.16;;;13.05;61.48
31299;BME280;17927;52.350;13.402;2022-11-02T03:25:23;101454.56;;;13.02;61.58
31299;BME280;17927;52.350;13.402;2022-11-02T03:28:02;101456.44;;;13.02;61.48
31299;BME280;17927;52.350;13.402;2022-11-02T03:30:37;101446.72;;;12.99;61.65
31299;BME280;17927;52.350;13.402;2022-11-02T03:33:07;101447.72;;;12.98;61.72
31299;BME280;17927;52.350;13.402;2022-11-02T03:35:55;101453.16;;;12.98;61.55
31299;BME280;17927;52.350;13.402;2022-11-02T03:38:32;101453.44;;;12.95;61.59
31299;BME280;17927;52.350;13.402;2022-11-02T03:41:00;101446.28;;;12.94;61.56
31299;BME280;17927;52.350;13.402;2022-11-02T03:43:27;101451.56;;;12.95;61.78
31299;BME280;17927;52.350;13.402;2022-11-02T03:45:57;101444.31;;;12.96;61.54
31299;BME280;17927;52.350;13.402;2022-11-02T03:48:28;101447.00;;;12.96;61.75
31299;BME280;17927;52.350;13.402;2022-11-02T03:50:57;101450.84;;;12.93;61.61
31299;BME280;17927;52.350;13.402;2022-11-02T03:53:28;101449.00;;;12.94;61.63
31299;BME280;17927;52.350;13.402;2022-11-02T03:56:05;101450.84;;;12.93;61.82
31299;BME280;17927;52.350;13.402;2022-11-02T03:58:32;101451.84;;;12.92;61.65
31299;BME280;17927;52.350;13.402;2022-11-02T04:01:02;101440.16;;;12.92;61.74
31299;BME280;17927;52.350;13.402;2022-11-02T04:03:29;101443.69;;;12.92;61.47
31299;BME280;17927;52.350;13.402;2022-11-02T04:05:55;101454.72;;;12.91;61.69
31299;BME280;17927;52.350;13.402;2022-11-02T04:08:31;101442.16;;;12.90;61.49
31299;BME280;17927;52.350;13.402;2022-11-02T04:10:57;101446.00;;;12.87;61.63
31299;BME280;17927;52.350;13.402;2022-11-02T04:13:40;101449.84;;;12.85;61.66
31299;BME280;17927;52.350;13.402;2022-11-02T04:16:24;101448.44;;;12.81;61.76
31299;BME280;17927;52.350;13.402;2022-11-02T04:18:50;101454.84;;;12.79;61.54
31299;BME280;17927;52.350;13.402;2022-11-02T04:21:33;101447.97;;;12.75;61.67
31299;BME280;17927;52.350;13.402;2022-11-02T04:23:59;101449.69;;;12.76;61.61
31299;BME280;17927;52.350;13.402;2022-11-02T04:26:42;101455.28;;;12.75;61.51
31299;BME280;17927;52.350;13.402;2022-11-02T04:29:08;101440.00;;;12.74;61.65
31299;BME280;17927;52.350;13.402;2022-11-02T04:31:33;101438.41;;;12.71;61.54
31299;BME280;17927;52.350;13.402;2022-11-02T04:33:58;101443.97;;;12.70;61.68
31299;BME280;17927;52.350;13.402;2022-11-02T04:36:25;101440.41;;;12.69;61.68
31299;BME280;17927;52.350;13.402;2022-11-02T04:38:50;101436.00;;;12.68;61.73
31299;BME280;17927;52.350;13.402;2022-11-02T04:41:17;101446.84;;;12.68;61.62
31299;BME280;17927;52.350;13.402;2022-11-02T04:44:02;101442.81;;;12.62;61.77
31299;BME280;17927;52.350;13.402;2022-11-02T04:46:29;101451.81;;;12.63;61.93
31299;BME280;17927;52.350;13.402;2022-11-02T04:48:55;101451.09;;;12.61;61.95
31299;BME280;17927;52.350;13.402;2022-11-02T04:51:22;101455.53;;;12.62;61.81
31299;BME280;17927;52.350;13.402;2022-11-02T04:53:48;101448.38;;;12.61;61.96
31299;BME280;17927;52.350;13.402;2022-11-02T04:56:14;101447.38;;;12.62;61.89
31299;BME280;17927;52.350;13.402;2022-11-02T04:58:40;101448.38;;;12.61;61.95
31299;BME280;17927;52.350;13.402;2022-11-02T05:01:14;101443.97;;;12.60;61.86
31299;BME280;17927;52.350;13.402;2022-11-02T05:03:39;101454.78;;;12.60;61.79
31299;BME280;17927;52.350;13.402;2022-11-02T05:06:05;101459.38;;;12.59;61.94
31299;BME280;17927;52.350;13.402;2022-11-02T05:08:30;101452.25;;;12.58;61.79
31299;BME280;17927;52.350;13.402;2022-11-02T05:10:57;101448.66;;;12.58;62.00
31299;BME280;17927;52.350;13.402;2022-11-02T05:13:23;101453.09;;;12.59;61.96
31299;BME280;17927;52.350;13.402;2022-11-02T05:15:49;101459.38;;;12.59;61.91
31299;BME280;17927;52.350;13.402;2022-11-02T05:18:14;101448.53;;;12.59;61.97
31299;BME280;17927;52.350;13.402;2022-11-02T05:20:40;101460.22;;;12.60;61.96
31299;BME280;17927;52.350;13.402;2022-11-02T05:23:05;101457.97;;;12.65;61.99
31299;BME280;17927;52.350;13.402;2022-11-02T05:25:31;101457.69;;;12.68;62.00
31299;BME280;17927;52.350;13.402;2022-11-02T05:27:56;101449.97;;;12.73;61.82
31299;BME280;17927;52.350;13.402;2022-11-02T05:30:22;101456.84;;;12.77;61.69
31299;BME280;17927;52.350;13.402;2022-11-02T05:32:47;101440.28;;;12.81;61.55
31299;BME280;17927;52.350;13.402;2022-11-02T05:35:12;101446.44;;;12.83;61.53
31299;BME280;17927;52.350;13.402;2022-11-02T05:37:38;101456.28;;;12.84;61.63
31299;BME280;17927;52.350;13.402;2022-11-02T05:40:03;101449.16;;;12.83;61.51
31299;BME280;17927;52.350;13.402;2022-11-02T05:42:29;101452.69;;;12.83;61.58
31299;BME280;17927;52.350;13.402;2022-11-02T05:44:54;101453.69;;;12.82;61.52
31299;BME280;17927;52.350;13.402;2022-11-02T05:47:19;101449.25;;;12.81;61.46
31299;BME280;17927;52.350;13.402;2022-11-02T05:49:45;101449.41;;;12.79;61.42
31299;BME280;17927;52.350;13.402;2022-11-02T05:52:10;101451.13;;;12.81;61.42
31299;BME280;17927;52.350;13.402;2022-11-02T05:54:35;101447.56;;;12.80;61.68
31299;BME280;17927;52.350;13.402;2022-11-02T05:57:01;101442.28;;;12.78;61.70
31299;BME280;17927;52.350;13.402;2022-11-02T05:59:26;101444.13;;;12.78;61.61
31299;BME280;17927;52.350;13.402;2022-11-02T06:01:51;101454.13;;;12.77;61.43
31299;BME280;17927;52.350;13.402;2022-11-02T06:04:16;101449.41;;;12.79;61.61
31299;BME280;17927;52.350;13.402;2022-11-02T06:06:42;101449.41;;;12.79;61.68
31299;BME280;17927;52.350;13.402;2022-11-02T06:09:07;101448.44;;;12.81;61.76
31299;BME280;17927;52.350;13.402;2022-11-02T06:11:33;101445.72;;;12.81;61.67
31299;BME280;17927;52.350;13.402;2022-11-02T06:13:58;101443.00;;;12.81;61.62
31299;BME280;17927;52.350;13.402;2022-11-02T06:16:23;101458.28;;;12.82;61.81
31299;BME280;17927;52.350;13.402;2022-11-02T06:18:49;101448.28;;;12.82;61.42
31299;BME280;17927;52.350;13.402;2022-11-02T06:21:14;101454.41;;;12.84;61.74
31299;BME280;17927;52.350;13.402;2022-11-02T06:23:39;101448.84;;;12.86;61.64
31299;BME280;17927;52.350;13.402;2022-11-02T06:26:08;101449.56;;;12.88;61.77
31299;BME280;17927;52.350;13.402;2022-11-02T06:28:34;101444.84;;;12.90;61.84
31299;BME280;17927;52.350;13.402;2022-11-02T06:30:59;101449.13;;;12.92;61.72
31299;BME280;17927;52.350;13.402;2022-11-02T06:33:25;101454.28;;;12.95;61.91
31299;BME280;17927;52.350;13.402;2022-11-02T06:35:51;101451.28;;;12.99;62.05
31299;BME280;17927;52.350;13.402;2022-11-02T06:38:17;101457.44;;;13.01;61.62
31299;BME280;17927;52.350;13.402;2022-11-02T06:40:44;101455.44;;;13.03;61.56
31299;BME280;17927;52.350;13.402;2022-11-02T06:43:16;101464.13;;;13.06;61.63
31299;BME280;17927;52.350;13.402;2022-11-02T06:45:42;101467.41;;;13.10;61.74
31299;BME280;17927;52.350;13.402;2022-11-02T06:48:07;101461.72;;;13.13;61.98
31299;BME280;17927;52.350;13.402;2022-11-02T06:50:32;101469.28;;;13.19;61.66
31299;BME280;17927;52.350;13.402;2022-11-02T06:52:57;101469.69;;;13.24;61.64
31299;BME280;17927;52.350;13.402;2022-11-02T06:55:22;101470.13;;;13.30;61.69
31299;BME280;17927;52.350;13.402;2022-11-02T06:57:48;101473.41;;;13.33;61.49
31299;BME280;17927;52.350;13.402;2022-11-02T07:00:14;101471.41;;;13.35;61.40
31299;BME280;17927;52.350;13.402;2022-11-02T07:02:44;101476.00;;;13.35;61.38
31299;BME280;17927;52.350;13.402;2022-11-02T07:05:10;101482.28;;;13.35;61.40
31299;BME280;17927;52.350;13.402;2022-11-02T07:07:36;101476.72;;;13.37;61.23
31299;BME280;17927;52.350;13.402;2022-11-02T07:10:01;101480.16;;;13.39;61.30
31299;BME280;17927;52.350;13.402;2022-11-02T07:12:26;101477.03;;;13.44;61.18
31299;BME280;17927;52.350;13.402;2022-11-02T07:14:51;101483.72;;;13.49;61.66
31299;BME280;17927;52.350;13.402;2022-11-02T07:17:17;101476.03;;;13.54;61.72
31299;BME280;17927;52.350;13.402;2022-11-02T07:19:42;101477.13;;;13.62;61.57
31299;BME280;17927;52.350;13.402;2022-11-02T07:22:07;101478.41;;;13.67;61.61
31299;BME280;17927;52.350;13.402;2022-11-02T07:24:32;101481.41;;;13.74;61.73
31299;BME280;17927;52.350;13.402;2022-11-02T07:26:58;101478.94;;;13.81;61.48
31299;BME280;17927;52.350;13.402;2022-11-02T07:29:23;101487.34;;;13.88;61.37
31299;BME280;17927;52.350;13.402;2022-11-02T07:31:48;101481.19;;;13.95;61.54
31299;BME280;17927;52.350;13.402;2022-11-02T07:34:14;101471.63;;;14.01;61.16
31299;BME280;17927;52.350;13.402;2022-11-02T07:36:39;101479.88;;;14.09;61.26
31299;BME280;17927;52.350;13.402;2022-11-02T07:39:05;101486.44;;;14.16;61.13
31299;BME280;17927;52.350;13.402;2022-11-02T07:41:31;101487.53;;;14.24;61.29
31299;BME280;17927;52.350;13.402;2022-11-02T07:43:56;101480.66;;;14.29;61.10
31299;BME280;17927;52.350;13.402;2022-11-02T07:46:22;101483.78;;;14.35;60.82
31299;BME280;17927;52.350;13.402;2022-11-02T07:48:47;101495.63;;;14.43;60.79
31299;BME280;17927;52.350;13.402;2022-11-02T07:51:12;101488.56;;;14.51;60.81
31299;BME280;17927;52.350;13.402;2022-11-02T07:53:38;101497.13;;;14.56;60.64
31299;BME280;17927;52.350;13.402;2022-11-02T07:56:04;101493.94;;;14.60;60.47
31299;BME280;17927;52.350;13.402;2022-11-02T07:58:30;101488.75;;;14.67;60.56
31299;BME280;17927;52.350;13.402;2022-11-02T08:00:57;101496.03;;;14.76;60.59
31299;BME280;17927;52.350;13.402;2022-11-02T08:03:23;101502.56;;;14.84;60.43
31299;BME280;17927;52.350;13.402;2022-11-02T08:05:49;101493.63;;;14.91;60.29
31299;BME280;17927;52.350;13.402;2022-11-02T08:08:16;101492.03;;;14.99;60.23
31299;BME280;17927;52.350;13.402;2022-11-02T08:10:43;101487.84;;;15.04;60.38
31299;BME280;17927;52.350;13.402;2022-11-02T08:13:11;101489.38;;;15.07;60.01
31299;BME280;17927;52.350;13.402;2022-11-02T08:15:37;101486.66;;;15.07;60.01
31299;BME280;17927;52.350;13.402;2022-11-02T08:18:04;101507.41;;;15.08;59.88
31299;BME280;17927;52.350;13.402;2022-11-02T08:20:30;101502.84;;;15.09;59.65
31299;BME280;17927;52.350;13.402;2022-11-02T08:22:56;101503.69;;;15.09;59.76
31299;BME280;17927;52.350;13.402;2022-11-02T08:25:22;101512.38;;;15.13;59.86
31299;BME280;17927;52.350;13.402;2022-11-02T08:27:48;101505.94;;;15.14;59.69
31299;BME280;17927;52.350;13.402;2022-11-02T08:30:13;101500.34;;;15.15;59.76
31299;BME280;17927;52.350;13.402;2022-11-02T08:32:38;101511.78;;;15.19;59.87
31299;BME280;17927;52.350;13.402;2022-11-02T08:35:04;101507.88;;;15.21;59.93
31299;BME280;17927;52.350;13.402;2022-11-02T08:37:29;101506.56;;;15.26;60.15
31299;BME280;17927;52.350;13.402;2022-11-02T08:39:55;101510.84;;;15.28;60.05
31299;BME280;17927;52.350;13.402;2022-11-02T08:42:20;101506.97;;;15.31;59.98
31299;BME280;17927;52.350;13.402;2022-11-02T08:44:45;101506.81;;;15.32;59.94
31299;BME280;17927;52.350;13.402;2022-11-02T08:47:10;101510.22;;;15.34;59.90
31299;BME280;17927;52.350;13.402;2022-11-02T08:49:36;101507.50;;;15.34;59.65
31299;BME280;17927;52.350;13.402;2022-11-02T08:52:01;101505.63;;;15.35;59.68
31299;BME280;17927;52.350;13.402;2022-11-02T08:54:26;101507.19;;;15.37;59.74
31299;BME280;17927;52.350;13.402;2022-11-02T08:56:51;101506.19;;;15.38;59.67
31299;BME280;17927;52.350;13.402;2022-11-02T08:59:17;101507.72;;;15.41;59.86
31299;BME280;17927;52.350;13.402;2022-11-02T09:01:42;101509.13;;;15.45;59.83
31299;BME280;17927;52.350;13.402;2022-11-02T09:04:07;101512.22;;;15.50;59.73
31299;BME280;17927;52.350;13.402;2022-11-02T09:06:33;101515.34;;;15.56;59.65
31299;BME280;17927;52.350;13.402;2022-11-02T09:08:58;101507.41;;;15.62;59.94
31299;BME280;17927;52.350;13.402;2022-11-02T09:11:23;101505.06;;;15.67;59.98
31299;BME280;17927;52.350;13.402;2022-11-02T09:13:48;101514.84;;;15.78;60.32
31299;BME280;17927;52.350;13.402;2022-11-02T09:16:14;101513.91;;;15.88;60.12
31299;BME280;17927;52.350;13.402;2022-11-02T09:18:39;101518.56;;;15.95;60.16
31299;BME280;17927;52.350;13.402;2022-11-02T09:21:04;101516.06;;;16.02;60.21
31299;BME280;17927;52.350;13.402;2022-11-02T09:23:30;101518.16;;;16.08;60.01
31299;BME280;17927;52.350;13.402;2022-11-02T09:25:56;101523.13;;;16.13;59.74
31299;BME280;17927;52.350;13.402;2022-11-02T09:28:21;101514.63;;;16.16;59.66
31299;BME280;17927;52.350;13.402;2022-11-02T09:30:47;101521.44;;;16.20;59.51
31299;BME280;17927;52.350;13.402;2022-11-02T09:33:12;101527.13;;;16.27;59.45
31299;BME280;17927;52.350;13.402;2022-11-02T09:35:40;101511.13;;;16.32;59.35
31299;BME280;17927;52.350;13.402;2022-11-02T09:38:06;101513.91;;;16.40;59.46
31299;BME280;17927;52.350;13.402;2022-11-02T09:40:37;101515.94;;;16.47;59.01
31299;BME280;17927;52.350;13.402;2022-11-02T09:45:44;101526.25;;;16.61;58.88
31299;BME280;17927;52.350;13.402;2022-11-02T09:48:27;101530.03;;;16.68;58.30
31299;BME280;17927;52.350;13.402;2022-11-02T09:51:01;101536.53;;;16.75;57.93
31299;BME280;17927;52.350;13.402;2022-11-02T09:53:35;101530.41;;;16.82;58.21
31299;BME280;17927;52.350;13.402;2022-11-02T09:56:04;101532.13;;;16.91;58.22
31299;BME280;17927;52.350;13.402;2022-11-02T09:58:36;101522.31;;;16.98;57.51
31299;BME280;17927;52.350;13.402;2022-11-02T10:04:28;101523.38;;;17.14;57.60
31299;BME280;17927;52.350;13.402;2022-11-02T10:07:08;101534.28;;;17.22;56.67
31299;BME280;17927;52.350;13.402;2022-11-02T10:09:57;101533.63;;;17.28;56.15
31299;BME280;17927;52.350;13.402;2022-11-02T10:12:49;101535.84;;;17.33;56.28
31299;BME280;17927;52.350;13.402;2022-11-02T10:15:22;101527.31;;;17.36;55.88
31299;BME280;17927;52.350;13.402;2022-11-02T10:17:54;101533.66;;;17.45;55.63
31299;BME280;17927;52.350;13.402;2022-11-02T10:20:48;101525.44;;;17.53;55.89
31299;BME280;17927;52.350;13.402;2022-11-02T10:23:27;101531.25;;;17.58;55.92
31299;BME280;17927;52.350;13.402;2022-11-02T10:25:54;101530.59;;;17.64;55.43
31299;BME280;17927;52.350;13.402;2022-11-02T10:28:26;101528.88;;;17.72;55.20
31299;BME280;17927;52.350;13.402;2022-11-02T10:30:53;101538.44;;;17.76;55.37
31299;BME280;17927;52.350;13.402;2022-11-02T10:33:22;101541.34;;;17.83;55.24
31299;BME280;17927;52.350;13.402;2022-11-02T10:39:00;101538.91;;;17.96;55.12
31299;BME280;17927;52.350;13.402;2022-11-02T10:44:18;101541.84;;;18.11;54.42
31299;BME280;17927;52.350;13.402;2022-11-02T10:47:03;101533.97;;;18.16;54.24
31299;BME280;17927;52.350;13.402;2022-11-02T10:50:01;101535.66;;;18.25;54.34
31299;BME280;17927;52.350;13.402;2022-11-02T10:52:34;101540.41;;;18.32;53.82
31299;BME280;17927;52.350;13.402;2022-11-02T10:55:02;101524.69;;;18.42;53.99
31299;BME280;17927;52.350;13.402;2022-11-02T10:57:27;101532.16;;;18.48;53.23
31299;BME280;17927;52.350;13.402;2022-11-02T11:03:09;101530.22;;;18.65;53.66
31299;BME280;17927;52.350;13.402;2022-11-02T11:08:36;101535.91;;;18.87;53.25
31299;BME280;17927;52.350;13.402;2022-11-02T11:11:13;101547.72;;;18.96;53.35
31299;BME280;17927;52.350;13.402;2022-11-02T11:13:40;101547.97;;;19.09;52.85
31299;BME280;17927;52.350;13.402;2022-11-02T11:16:06;101542.47;;;19.17;52.43
31299;BME280;17927;52.350;13.402;2022-11-02T11:18:32;101541.19;;;19.28;52.14
31299;BME280;17927;52.350;13.402;2022-11-02T11:20:58;101544.75;;;19.37;52.04
31299;BME280;17927;52.350;13.402;2022-11-02T11:23:24;101552.88;;;19.45;51.05
31299;BME280;17927;52.350;13.402;2022-11-02T11:26:06;101542.91;;;19.53;49.61
31299;BME280;17927;52.350;13.402;2022-11-02T11:28:52;101547.63;;;19.59;49.69
31299;BME280;17927;52.350;13.402;2022-11-02T11:31:18;101548.50;;;19.59;49.75
31299;BME280;17927;52.350;13.402;2022-11-02T11:33:55;101564.09;;;19.59;48.25
31299;BME280;17927;52.350;13.402;2022-11-02T11:36:27;101560.00;;;19.55;47.95
31299;BME280;17927;52.350;13.402;2022-11-02T11:38:56;101565.00;;;19.51;48.65
31299;BME280;17927;52.350;13.402;2022-11-02T11:41:22;101547.22;;;19.47;48.76
31299;BME280;17927;52.350;13.402;2022-11-02T11:43:48;101557.53;;;19.45;48.32
31299;BME280;17927;52.350;13.402;2022-11-02T11:46:16;101560.78;;;19.40;47.76
31299;BME280;17927;52.350;13.402;2022-11-02T11:48:51;101555.19;;;19.33;47.28
31299;BME280;17927;52.350;13.402;2022-11-02T11:51:30;101544.63;;;19.30;47.76
31299;BME280;17927;52.350;13.402;2022-11-02T11:56:41;101541.88;;;19.30;48.74
31299;BME280;17927;52.350;13.402;2022-11-02T12:02:20;101539.97;;;19.31;48.97
31299;BME280;17927;52.350;13.402;2022-11-02T12:04:45;101546.47;;;19.30;49.01
31299;BME280;17927;52.350;13.402;2022-11-02T12:10:18;101543.94;;;19.28;48.92
31299;BME280;17927;52.350;13.402;2022-11-02T12:16:06;101543.25;;;19.26;49.14
31299;BME280;17927;52.350;13.402;2022-11-02T12:19:03;101530.91;;;19.30;49.33
31299;BME280;17927;52.350;13.402;2022-11-02T12:22:00;101543.88;;;19.37;48.90
31299;BME280;17927;52.350;13.402;2022-11-02T12:24:40;101544.19;;;19.42;48.88
31299;BME280;17927;52.350;13.402;2022-11-02T12:27:21;101543.63;;;19.46;48.38
31299;BME280;17927;52.350;13.402;2022-11-02T12:30:01;101536.00;;;19.57;48.95
31299;BME280;17927;52.350;13.402;2022-11-02T12:41:03;101544.94;;;19.97;48.93
31299;BME280;17927;52.350;13.402;2022-11-02T12:43:45;101545.06;;;20.04;47.80
31299;BME280;17927;52.350;13.402;2022-11-02T12:46:21;101546.56;;;20.06;47.16
31299;BME280;17927;52.350;13.402;2022-11-02T12:49:28;101536.06;;;20.10;47.01
31299;BME280;17927;52.350;13.402;2022-11-02T12:52:15;101549.13;;;20.08;46.45
31299;BME280;17927;52.350;13.402;2022-11-02T12:54:56;101555.66;;;20.07;46.92
31299;BME280;17927;52.350;13.402;2022-11-02T12:57:26;101555.44;;;20.08;46.56
31299;BME280;17927;52.350;13.402;2022-11-02T13:00:01;101556.78;;;20.13;46.46
31299;BME280;17927;52.350;13.402;2022-11-02T13:02:32;101560.00;;;20.16;46.82
31299;BME280;17927;52.350;13.402;2022-11-02T13:05:12;101545.06;;;20.19;46.86
31299;BME280;17927;52.350;13.402;2022-11-02T13:07:43;101552.63;;;20.17;46.84
31299;BME280;17927;52.350;13.402;2022-11-02T13:10:17;101539.28;;;19.99;47.05
31299;BME280;17927;52.350;13.402;2022-11-02T13:12:47;101544.38;;;20.02;46.02
31299;BME280;17927;52.350;13.402;2022-11-02T13:15:17;101548.25;;;20.07;45.40
31299;BME280;17927;52.350;13.402;2022-11-02T13:17:50;101552.81;;;20.15;45.41
31299;BME280;17927;52.350;13.402;2022-11-02T13:20:22;101555.94;;;20.27;46.08
31299;BME280;17927;52.350;13.402;2022-11-02T13:23:02;101564.38;;;20.41;45.02
31299;BME280;17927;52.350;13.402;2022-11-02T13:25:38;101552.25;;;20.50;44.62
31299;BME280;17927;52.350;13.402;2022-11-02T13:28:29;101548.84;;;20.63;44.39
31299;BME280;17927;52.350;13.402;2022-11-02T13:30:57;101549.06;;;20.76;44.95
31299;BME280;17927;52.350;13.402;2022-11-02T13:33:25;101552.44;;;20.93;44.42
31299;BME280;17927;52.350;13.402;2022-11-02T13:35:54;101560.63;;;21.08;43.87
31299;BME280;17927;52.350;13.402;2022-11-02T13:38:29;101554.06;;;21.24;43.36
31299;BME280;17927;52.350;13.402;2022-11-02T13:44:00;101556.03;;;21.52;42.45
31299;BME280;17927;52.350;13.402;2022-11-02T13:46:58;101553.81;;;21.63;42.01